createdAt,value
2023-03-06T00:00:50.040Z,12.23
2023-03-06T00:05:51.497Z,12.05
2023-03-06T00:10:53.596Z,14.07
2023-03-06T00:15:58.839Z,11.82
2023-03-06T00:21:00.412Z,13.40
2023-03-06T00:26:02.076Z,15.52
2023-03-06T00:31:04.150Z,10.43
2023-03-06T00:36:06.327Z,11.25
2023-03-06T00:41:10.515Z,10.10
2023-03-06T00:46:12.044Z,11.98
2023-03-06T00:51:14.116Z,13.35
2023-03-06T00:56:15.660Z,9.73
2023-03-06T01:01:17.276Z,13.02
2023-03-06T01:06:18.825Z,12.45
2023-03-06T01:11:20.472Z,8.27
2023-03-06T01:16:22.259Z,11.32
2023-03-06T01:21:23.712Z,11.05
2023-03-06T01:26:25.230Z,11.98
2023-03-06T01:31:26.844Z,13.45
2023-03-06T01:36:28.487Z,14.75
2023-03-06T01:41:30.234Z,14.85
2023-03-06T01:46:41.805Z,15.32
2023-03-06T01:52:07.363Z,19.17
2023-03-06T01:57:14.805Z,13.88
2023-03-06T02:02:16.448Z,13.13
2023-03-06T02:07:20.273Z,11.20
2023-03-06T02:12:22.115Z,14.68
2023-03-06T02:17:24.297Z,14.10
2023-03-06T02:22:36.083Z,14.30
2023-03-06T02:27:37.718Z,12.43
2023-03-06T02:32:39.177Z,14.63
2023-03-06T02:37:40.953Z,16.50
2023-03-06T02:42:50.666Z,14.18
2023-03-06T02:47:52.100Z,15.57
2023-03-06T02:52:53.568Z,15.18
2023-03-06T02:57:55.028Z,12.40
2023-03-06T03:02:56.711Z,14.00
2023-03-06T03:07:58.621Z,16.35
2023-03-06T03:13:00.110Z,16.08
2023-03-06T03:18:01.591Z,16.02
2023-03-06T03:23:03.712Z,15.77
2023-03-06T03:28:05.169Z,12.38
2023-03-06T03:33:07.075Z,20.58
2023-03-06T03:38:08.595Z,15.55
2023-03-06T03:43:10.052Z,12.10
2023-03-06T03:48:11.974Z,20.20
2023-03-06T03:53:13.721Z,17.48
2023-03-06T03:58:15.701Z,15.88
2023-03-06T04:03:17.310Z,19.55
2023-03-06T04:08:18.707Z,13.15
2023-03-06T04:13:22.255Z,19.48
2023-03-06T04:18:24.013Z,19.67
2023-03-06T04:23:26.343Z,22.35
2023-03-06T04:28:27.799Z,24.15
2023-03-06T04:33:29.302Z,25.23
2023-03-06T04:38:30.945Z,23.40
2023-03-06T04:43:32.469Z,25.23
2023-03-06T04:48:36.623Z,37.92
2023-03-06T04:53:38.149Z,31.52
2023-03-06T04:58:39.631Z,25.05
2023-03-06T05:03:41.095Z,19.38
2023-03-06T05:08:42.550Z,17.73
2023-03-06T05:13:44.123Z,16.67
2023-03-06T05:18:45.630Z,16.67
2023-03-06T05:23:47.570Z,19.35
2023-03-06T05:28:49.049Z,13.63
2023-03-06T05:33:50.457Z,12.98
2023-03-06T05:38:52.011Z,12.77
2023-03-06T05:43:53.677Z,11.27
2023-03-06T05:48:56.198Z,10.63
2023-03-06T05:53:57.953Z,12.27
2023-03-06T05:58:59.387Z,11.38
2023-03-06T06:04:00.831Z,13.40
2023-03-06T06:09:02.228Z,11.50
2023-03-06T06:14:03.661Z,14.60
2023-03-06T06:19:05.115Z,12.32
2023-03-06T06:24:06.773Z,10.98
2023-03-06T06:29:08.561Z,10.90
2023-03-06T06:34:11.009Z,14.25
2023-03-06T06:39:16.138Z,10.20
2023-03-06T06:44:18.466Z,11.07
2023-03-06T06:49:19.955Z,8.40
2023-03-06T06:54:22.323Z,10.75
2023-03-06T06:59:23.994Z,9.23
2023-03-06T07:04:25.454Z,16.52
2023-03-06T07:09:26.955Z,13.65
2023-03-06T07:14:28.405Z,17.98
2023-03-06T07:19:29.851Z,19.15
2023-03-06T07:24:31.331Z,18.02
2023-03-06T07:29:34.438Z,19.17
2023-03-06T07:34:35.918Z,19.08
2023-03-06T07:39:37.361Z,17.15
2023-03-06T07:44:38.891Z,26.90
2023-03-06T07:49:40.316Z,19.38
2023-03-06T07:54:42.043Z,19.25
2023-03-06T07:59:43.517Z,20.50
2023-03-06T08:04:44.999Z,25.17
2023-03-06T08:09:46.438Z,23.08
2023-03-06T08:14:47.917Z,22.67
2023-03-06T08:19:49.367Z,23.50
2023-03-06T08:24:55.003Z,26.10
2023-03-06T08:29:56.482Z,29.25
2023-03-06T08:34:57.969Z,22.13
2023-03-06T08:39:59.527Z,20.88
2023-03-06T08:45:01.004Z,17.25
2023-03-06T08:50:02.515Z,23.63
2023-03-06T08:55:04.193Z,22.42
2023-03-06T09:00:09.063Z,22.95
2023-03-06T09:05:11.076Z,21.02
2023-03-06T09:10:17.841Z,21.67
2023-03-06T09:15:21.114Z,21.60
2023-03-06T09:20:22.801Z,20.80
2023-03-06T09:25:25.082Z,16.98
2023-03-06T09:30:26.548Z,16.33
2023-03-06T09:35:28.077Z,16.55
2023-03-06T09:40:55.741Z,17.48
2023-03-06T09:45:59.912Z,16.77
2023-03-06T09:51:10.662Z,15.98
2023-03-06T09:56:20.342Z,16.20
2023-03-06T10:01:29.549Z,16.42
2023-03-06T10:06:36.817Z,17.73
2023-03-06T10:11:46.847Z,17.95
2023-03-06T10:16:48.529Z,13.27
2023-03-06T10:21:58.508Z,15.60
2023-03-06T10:27:12.703Z,14.25
2023-03-06T10:32:34.277Z,13.35
2023-03-06T10:37:41.124Z,13.82
2023-03-06T10:42:42.626Z,12.95
2023-03-06T10:47:44.187Z,14.57
2023-03-06T10:52:57.865Z,13.63
2023-03-06T10:58:18.376Z,14.32
2023-03-06T11:03:24.481Z,12.00
2023-03-06T11:08:26.029Z,18.05
2023-03-06T11:13:30.617Z,12.68
2023-03-06T11:18:38.440Z,12.88
2023-03-06T11:23:47.206Z,12.95
2023-03-06T11:29:08.933Z,14.35
2023-03-06T11:34:51.673Z,11.93
2023-03-06T11:40:02.826Z,13.70
2023-03-06T11:45:04.399Z,13.02
2023-03-06T11:50:24.723Z,14.25
2023-03-06T11:55:44.183Z,14.60
2023-03-06T12:01:14.620Z,14.32
2023-03-06T12:06:45.826Z,14.68
2023-03-06T12:12:20.859Z,14.95
2023-03-06T12:17:28.248Z,12.23
2023-03-06T12:22:53.384Z,14.90
2023-03-06T12:28:23.122Z,11.88
2023-03-06T12:33:30.538Z,13.32
2023-03-06T12:39:01.206Z,11.93
2023-03-06T12:44:05.631Z,11.75
2023-03-06T12:49:31.492Z,13.23
2023-03-06T12:54:38.635Z,14.60
2023-03-06T12:59:48.583Z,13.20
2023-03-06T13:05:28.688Z,12.65
2023-03-06T13:10:35.852Z,13.63
2023-03-06T13:15:39.048Z,13.55
2023-03-06T13:20:42.903Z,13.95
2023-03-06T13:25:50.363Z,14.60
2023-03-06T13:30:53.277Z,14.85
2023-03-06T13:35:56.890Z,12.07
2023-03-06T13:41:23.011Z,11.05
2023-03-06T13:46:35.060Z,10.93
2023-03-06T13:52:10.516Z,14.25
2023-03-06T13:57:21.290Z,13.50
2023-03-06T14:02:54.764Z,16.23
2023-03-06T14:08:07.508Z,16.35
2023-03-06T14:13:23.319Z,19.77
2023-03-06T14:18:47.746Z,16.83
2023-03-06T14:24:00.421Z,15.68
2023-03-06T14:29:03.123Z,16.70
2023-03-06T14:34:15.924Z,18.77
2023-03-06T14:39:43.962Z,21.95
2023-03-06T14:44:47.284Z,18.15
2023-03-06T14:50:43.818Z,17.92
2023-03-06T14:55:53.166Z,15.20
2023-03-06T15:05:58.048Z,19.42
2023-03-06T15:11:06.092Z,16.80
2023-03-06T15:16:13.433Z,17.92
2023-03-06T15:21:18.744Z,17.25
2023-03-06T15:26:29.539Z,16.83
2023-03-06T15:31:33.026Z,19.45
2023-03-06T15:36:43.060Z,17.60
2023-03-06T15:41:44.957Z,19.55
2023-03-06T15:46:47.293Z,19.02
2023-03-06T15:51:49.940Z,18.13
2023-03-06T15:56:52.148Z,19.67
2023-03-06T16:01:54.202Z,18.80
2023-03-06T16:06:55.673Z,22.83
2023-03-06T16:11:57.265Z,22.17
2023-03-06T16:16:59.572Z,18.55
2023-03-06T16:22:01.030Z,18.25
2023-03-06T16:27:02.860Z,20.15
2023-03-06T16:32:05.433Z,19.40
2023-03-06T16:37:11.375Z,19.92
2023-03-06T16:42:12.935Z,22.30
2023-03-06T16:47:14.426Z,21.73
2023-03-06T16:52:16.272Z,23.48
2023-03-06T16:57:17.700Z,23.25
2023-03-06T17:02:19.170Z,47.40
2023-03-06T17:07:20.593Z,28.33
2023-03-06T17:12:21.998Z,26.75
2023-03-06T17:17:23.460Z,33.17
2023-03-06T17:22:25.444Z,43.60
2023-03-06T17:27:26.895Z,36.45
2023-03-06T17:32:28.830Z,21.63
2023-03-06T17:37:31.955Z,30.80
2023-03-06T17:42:35.280Z,28.33
2023-03-06T17:47:36.856Z,27.88
2023-03-06T17:52:38.974Z,25.52
2023-03-06T17:57:40.414Z,28.77
2023-03-06T18:02:41.900Z,25.90
2023-03-06T18:07:43.894Z,32.28
2023-03-06T18:12:45.466Z,31.90
2023-03-06T18:17:46.999Z,33.78
2023-03-06T18:22:48.448Z,33.75
2023-03-06T18:27:49.865Z,32.63
2023-03-06T18:32:51.322Z,34.00
2023-03-06T18:37:52.791Z,34.22
2023-03-06T18:42:54.765Z,30.20
2023-03-06T18:47:56.264Z,39.55
2023-03-06T18:52:57.747Z,39.60
2023-03-06T18:57:59.252Z,42.00
2023-03-06T19:03:00.681Z,33.15
2023-03-06T19:08:02.101Z,30.70
2023-03-06T19:13:04.628Z,29.02
2023-03-06T19:18:06.054Z,30.05
2023-03-06T19:23:08.007Z,30.20
2023-03-06T19:28:09.459Z,27.42
2023-03-06T19:33:10.869Z,25.17
2023-03-06T19:38:12.504Z,29.13
2023-03-06T19:43:13.931Z,29.88
2023-03-06T19:48:16.147Z,29.45
2023-03-06T19:53:17.684Z,33.13
2023-03-06T19:58:19.114Z,32.40
2023-03-06T20:03:20.568Z,33.53
2023-03-06T20:08:21.980Z,35.78
2023-03-06T20:13:23.650Z,36.95
2023-03-06T20:18:25.146Z,34.30
2023-03-06T20:23:27.524Z,40.30
2023-03-06T20:28:29.013Z,38.72
2023-03-06T20:33:30.427Z,35.40
2023-03-06T20:38:31.904Z,32.47
2023-03-06T20:43:33.311Z,31.30
2023-03-06T20:48:34.948Z,31.15
2023-03-06T20:53:36.628Z,32.45
2023-03-06T20:58:38.085Z,29.25
2023-03-06T21:03:39.531Z,29.38
2023-03-06T21:08:41.102Z,30.40
2023-03-06T21:13:42.898Z,31.02
2023-03-06T21:18:45.299Z,28.05
2023-03-06T21:23:48.018Z,28.92
2023-03-06T21:28:49.847Z,30.30
2023-03-06T21:33:51.747Z,27.65
2023-03-06T21:38:54.214Z,29.98
2023-03-06T21:43:57.284Z,27.83
2023-03-06T21:48:59.142Z,30.38
2023-03-06T21:54:02.013Z,26.65
2023-03-06T21:59:03.454Z,28.50
2023-03-06T22:04:04.891Z,28.98
2023-03-06T22:09:06.707Z,32.63
2023-03-06T22:14:08.266Z,31.40
2023-03-06T22:19:09.719Z,30.83
2023-03-06T22:24:11.149Z,28.30
2023-03-06T22:29:12.571Z,28.98
2023-03-06T22:34:13.990Z,36.78
2023-03-06T22:39:15.412Z,33.33
2023-03-06T22:44:19.183Z,33.80
2023-03-06T22:49:20.694Z,30.25
2023-03-06T22:54:22.232Z,37.13
2023-03-06T22:59:23.698Z,33.55
2023-03-06T23:04:25.159Z,36.20
2023-03-06T23:09:26.882Z,32.83
2023-03-06T23:14:28.383Z,37.20
2023-03-06T23:19:29.863Z,36.65
2023-03-06T23:24:34.819Z,34.47
2023-03-06T23:29:37.650Z,38.55
2023-03-06T23:34:39.124Z,38.15
2023-03-06T23:39:40.550Z,34.40
2023-03-06T23:44:42.012Z,38.33
2023-03-06T23:49:43.599Z,39.72
2023-03-06T23:54:45.041Z,40.92
2023-03-06T23:59:46.577Z,37.33
